Terminal Aerodrome Forecast
Issued by NWS Brownsville, TX

Home | Current Version | Previous Version | Text Only | Print | Product List | Glossary On
Versions: 1 2 3 4 5 6 7 8 9 10 11 12
000
FTUS44 KBRO 271723
TAFBRO
TAF
KBRO 271723Z 2718/2818 25004KT P6SM SCT250
     FM280200 18004KT P6SM SCT250
      TEMPO 2809/2812 4SM BR
     FM281200 18007KT P6SM OVC250=

USA.gov is the U.S. government's official web portal to all federal, state and local government web resources and services.